Kyokusho Maru — JL6605 — position and weather

sailwx.info

Track history (hours):
 
Tides and Currents Weather Stations Pressure Air Temp Water Temp Dewpoint Dewpoint Depression Visibility Wind Speed Wind Dir Waves Ship Positions

Kyokusho Maru

Last reported at 2017-May-25 07:10 UTC. Time now 2017-May-29 13:21 UTC.
Position N 34°37' E 134°56'.

Length 77 m; draft 5.5 m.

Type: Tanker. MMSI: 431501667.

Date/timePositionNaut miles runAvg speedWind from/ knotsBaromVisibWave heightAir tempDewpointWater temp
2017-May-25 07:10N 34°37' E 134°56'410.8
2017-May-25 06:46N 34°37' E 135°01'2 8.8
2017-May-25 06:30N 34°36' E 135°04'5 9.1
2017-May-25 06:00N 34°36' E 135°09'611.4
2017-May-25 05:30N 34°36' E 135°16'611.1
2017-May-25 05:00N 34°38' E 135°23'3 0.4
2017-May-24 23:00N 34°39' E 135°25'2 3.1
2017-May-24 22:30N 34°38' E 135°24'4 7.1
2017-May-24 21:53N 34°36' E 135°19'0 0.0
2017-May-24 21:05N 34°36' E 135°19'0 0.1
2017-May-24 20:59N 34°36' E 135°19'0 0.0
2017-May-24 20:17N 34°36' E 135°19'0 0.0
2017-May-24 19:59N 34°36' E 135°19'0 0.1
2017-May-24 19:17N 34°36' E 135°19'0 0.0
2017-May-24 18:53N 34°36' E 135°19'0 0.0
2017-May-24 18:23N 34°36' E 135°19'0 0.0
2017-May-24 17:59N 34°36' E 135°19'0 0.0
2017-May-24 17:29N 34°36' E 135°19'0 0.0
2017-May-24 16:59N 34°36' E 135°19'0 0.0
2017-May-24 16:29N 34°36' E 135°19'0 0.0
2017-May-24 15:59N 34°36' E 135°19'0 0.0
2017-May-24 15:29N 34°36' E 135°19'0 0.0
2017-May-24 14:59N 34°36' E 135°19'0 0.0
2017-May-24 14:29N 34°36' E 135°19'0 0.0
2017-May-24 13:23N 34°36' E 135°19'0 0.0
2017-May-24 12:59N 34°36' E 135°19'0 0.0
2017-May-24 12:29N 34°36' E 135°19'0 0.0
2017-May-24 11:59N 34°36' E 135°19'0 0.0
2017-May-24 11:29N 34°36' E 135°19'0 0.0
2017-May-24 10:59N 34°36' E 135°19'0 0.0
2017-May-24 10:29N 34°36' E 135°19'0 0.1
2017-May-24 10:00N 34°36' E 135°19'510.8
2017-May-24 09:30N 34°35' E 135°13'713.3
2017-May-24 09:00N 34°35' E 135°05'  
2017-May-21 06:33N 34°08' E 134°53'212.0
2017-May-21 06:25N 34°08' E 134°55'511.6
2017-May-21 06:00N 34°08' E 135°01'6 9.4
2017-May-21 05:24N 34°07' E 135°08'0 0.0
2017-May-20 23:59N 34°07' E 135°08'2 1.9
2017-May-20 22:49N 34°09' E 135°09'0 0.0
2017-May-20 22:19N 34°09' E 135°09'0 0.0
2017-May-20 21:58N 34°09' E 135°09'0 0.0
2017-May-20 21:25N 34°09' E 135°09'0 0.0
2017-May-20 20:37N 34°09' E 135°09'0 0.0
2017-May-20 20:28N 34°09' E 135°09'0 0.0
2017-May-20 19:58N 34°09' E 135°09'0 0.0
2017-May-20 19:25N 34°09' E 135°09'0 0.0
2017-May-20 18:58N 34°09' E 135°09'0 0.0
2017-May-20 18:28N 34°09' E 135°09'0 0.0
2017-May-20 17:55N 34°09' E 135°09'0 0.0
2017-May-20 17:13N 34°09' E 135°09'0 0.0
2017-May-20 16:55N 34°09' E 135°09'0 0.0
2017-May-20 16:28N 34°09' E 135°09'0 0.1
2017-May-20 15:58N 34°09' E 135°09'0 0.0
2017-May-20 15:28N 34°09' E 135°09'0 0.1
2017-May-20 14:55N 34°09' E 135°09'0 0.0
2017-May-20 13:55N 34°09' E 135°09'0 0.1
2017-May-20 13:28N 34°09' E 135°09'0 0.0
2017-May-20 12:58N 34°09' E 135°09'0 0.1
2017-May-20 12:25N 34°09' E 135°09'0 0.0
2017-May-20 11:55N 34°09' E 135°09'0 0.0
2017-May-20 11:13N 34°09' E 135°09'0 0.0
2017-May-20 10:55N 34°09' E 135°09'0 0.1
2017-May-20 10:28N 34°09' E 135°09'0 0.0
2017-May-20 09:55N 34°09' E 135°09'0 0.0
2017-May-20 09:28N 34°09' E 135°09'0 0.0
2017-May-20 08:58N 34°09' E 135°09'0 0.0
2017-May-20 08:28N 34°09' E 135°09'0 0.0
2017-May-20 07:58N 34°09' E 135°09'0 0.0
2017-May-20 07:07N 34°09' E 135°09'0 0.0
2017-May-20 06:58N 34°09' E 135°09'0 0.0
2017-May-20 06:28N 34°09' E 135°09'0 0.0
2017-May-20 05:55N 34°09' E 135°09'0 0.0
2017-May-20 05:28N 34°09' E 135°09'0 0.0
2017-May-20 04:55N 34°09' E 135°09'0 0.0
2017-May-20 04:25N 34°09' E 135°09'0 0.0
2017-May-20 03:55N 34°09' E 135°09'0 0.0
2017-May-20 03:28N 34°09' E 135°09'0 0.0
2017-May-20 02:58N 34°09' E 135°09'0 0.0
2017-May-20 02:10N 34°09' E 135°09'0 0.0
2017-May-20 01:49N 34°09' E 135°09'0 0.0
2017-May-20 01:13N 34°09' E 135°09'0 0.0
2017-May-20 00:52N 34°09' E 135°09'0 0.1
2017-May-20 00:28N 34°09' E 135°09'0 0.0
2017-May-19 23:01N 34°09' E 135°09'0 0.0
2017-May-19 22:58N 34°09' E 135°09'0 0.0
2017-May-19 22:25N 34°09' E 135°09'0 0.0
2017-May-19 21:55N 34°09' E 135°09'0 0.0
2017-May-19 21:28N 34°09' E 135°09'0 0.0
2017-May-19 20:58N 34°09' E 135°09'0 0.0
2017-May-19 20:19N 34°09' E 135°09'0 0.0
2017-May-19 19:13N 34°09' E 135°09'0 0.0
2017-May-19 18:43N 34°09' E 135°09'0 0.0
2017-May-19 18:25N 34°09' E 135°09'0 0.1
2017-May-19 17:58N 34°09' E 135°09'0 0.0
2017-May-19 16:58N 34°09' E 135°09'0 0.0
2017-May-19 16:25N 34°09' E 135°09'0 0.0
2017-May-19 15:46N 34°09' E 135°09'0 0.1
2017-May-19 15:25N 34°09' E 135°09'0 0.1
2017-May-19 14:55N 34°09' E 135°09'0 0.1
2017-May-19 13:58N 34°09' E 135°09'0 0.1
2017-May-19 13:25N 34°09' E 135°09'0 0.0
2017-May-19 12:43N 34°09' E 135°09'0 0.0
2017-May-19 12:25N 34°09' E 135°09'0 0.0
2017-May-19 11:55N 34°09' E 135°09'0 0.0
2017-May-19 11:25N 34°09' E 135°09'0 0.0
2017-May-19 10:58N 34°09' E 135°09'0 0.0
2017-May-19 10:28N 34°09' E 135°09'0 0.0
2017-May-19 09:58N 34°09' E 135°09'0 0.0
2017-May-19 09:22N 34°09' E 135°09'0 0.0
2017-May-19 08:55N 34°09' E 135°09'0 0.0
2017-May-19 08:28N 34°09' E 135°09'0 0.0
2017-May-19 07:55N 34°09' E 135°09'0 0.0
2017-May-19 07:25N 34°09' E 135°09'0 0.0
2017-May-19 06:58N 34°09' E 135°09'0 0.0
2017-May-19 06:28N 34°09' E 135°09'0 0.0
2017-May-19 05:55N 34°09' E 135°09'0 0.0
2017-May-19 05:28N 34°09' E 135°09'0 0.0
2017-May-19 04:55N 34°09' E 135°09'0 0.0
2017-May-19 04:22N 34°09' E 135°09'0 0.0
2017-May-19 03:49N 34°09' E 135°09'0 0.1
2017-May-19 03:25N 34°09' E 135°09'5 9.8
2017-May-19 02:57N 34°09' E 135°03'  
Track history (hours):
 
Tides and Currents Weather Stations Pressure Air Temp Water Temp Dewpoint Dewpoint Depression Visibility Wind Speed Wind Dir Waves Ship Positions

Kyokusho Maru

Last reported at 2017-May-25 07:10 UTC. Time now 2017-May-29 13:21 UTC.
Position N 34°37' E 134°56'.

Length 77 m; draft 5.5 m.

Type: Tanker. MMSI: 431501667.

Date/timePositionNaut miles runAvg speedWind from/ knotsBaromVisibWave heightAir tempDewpointWater temp
2017-May-25 07:10N 34°37' E 134°56'410.8
2017-May-25 06:46N 34°37' E 135°01'2 8.8
2017-May-25 06:30N 34°36' E 135°04'5 9.1
2017-May-25 06:00N 34°36' E 135°09'611.4
2017-May-25 05:30N 34°36' E 135°16'611.1
2017-May-25 05:00N 34°38' E 135°23'3 0.4
2017-May-24 23:00N 34°39' E 135°25'2 3.1
2017-May-24 22:30N 34°38' E 135°24'4 7.1
2017-May-24 21:53N 34°36' E 135°19'0 0.0
2017-May-24 21:05N 34°36' E 135°19'0 0.1
2017-May-24 20:59N 34°36' E 135°19'0 0.0
2017-May-24 20:17N 34°36' E 135°19'0 0.0
2017-May-24 19:59N 34°36' E 135°19'0 0.1
2017-May-24 19:17N 34°36' E 135°19'0 0.0
2017-May-24 18:53N 34°36' E 135°19'0 0.0
2017-May-24 18:23N 34°36' E 135°19'0 0.0
2017-May-24 17:59N 34°36' E 135°19'0 0.0
2017-May-24 17:29N 34°36' E 135°19'0 0.0
2017-May-24 16:59N 34°36' E 135°19'0 0.0
2017-May-24 16:29N 34°36' E 135°19'0 0.0
2017-May-24 15:59N 34°36' E 135°19'0 0.0
2017-May-24 15:29N 34°36' E 135°19'0 0.0
2017-May-24 14:59N 34°36' E 135°19'0 0.0
2017-May-24 14:29N 34°36' E 135°19'0 0.0
2017-May-24 13:23N 34°36' E 135°19'0 0.0
2017-May-24 12:59N 34°36' E 135°19'0 0.0
2017-May-24 12:29N 34°36' E 135°19'0 0.0
2017-May-24 11:59N 34°36' E 135°19'0 0.0
2017-May-24 11:29N 34°36' E 135°19'0 0.0
2017-May-24 10:59N 34°36' E 135°19'0 0.0
2017-May-24 10:29N 34°36' E 135°19'0 0.1
2017-May-24 10:00N 34°36' E 135°19'510.8
2017-May-24 09:30N 34°35' E 135°13'713.3
2017-May-24 09:00N 34°35' E 135°05'  
2017-May-21 06:33N 34°08' E 134°53'212.0
2017-May-21 06:25N 34°08' E 134°55'511.6
2017-May-21 06:00N 34°08' E 135°01'6 9.4
2017-May-21 05:24N 34°07' E 135°08'0 0.0
2017-May-20 23:59N 34°07' E 135°08'2 1.9
2017-May-20 22:49N 34°09' E 135°09'0 0.0
2017-May-20 22:19N 34°09' E 135°09'0 0.0
2017-May-20 21:58N 34°09' E 135°09'0 0.0
2017-May-20 21:25N 34°09' E 135°09'0 0.0
2017-May-20 20:37N 34°09' E 135°09'0 0.0
2017-May-20 20:28N 34°09' E 135°09'0 0.0
2017-May-20 19:58N 34°09' E 135°09'0 0.0
2017-May-20 19:25N 34°09' E 135°09'0 0.0
2017-May-20 18:58N 34°09' E 135°09'0 0.0
2017-May-20 18:28N 34°09' E 135°09'0 0.0
2017-May-20 17:55N 34°09' E 135°09'0 0.0
2017-May-20 17:13N 34°09' E 135°09'0 0.0
2017-May-20 16:55N 34°09' E 135°09'0 0.0
2017-May-20 16:28N 34°09' E 135°09'0 0.1
2017-May-20 15:58N 34°09' E 135°09'0 0.0
2017-May-20 15:28N 34°09' E 135°09'0 0.1
2017-May-20 14:55N 34°09' E 135°09'0 0.0
2017-May-20 13:55N 34°09' E 135°09'0 0.1
2017-May-20 13:28N 34°09' E 135°09'0 0.0
2017-May-20 12:58N 34°09' E 135°09'0 0.1
2017-May-20 12:25N 34°09' E 135°09'0 0.0
2017-May-20 11:55N 34°09' E 135°09'0 0.0
2017-May-20 11:13N 34°09' E 135°09'0 0.0
2017-May-20 10:55N 34°09' E 135°09'0 0.1
2017-May-20 10:28N 34°09' E 135°09'0 0.0
2017-May-20 09:55N 34°09' E 135°09'0 0.0
2017-May-20 09:28N 34°09' E 135°09'0 0.0
2017-May-20 08:58N 34°09' E 135°09'0 0.0
2017-May-20 08:28N 34°09' E 135°09'0 0.0
2017-May-20 07:58N 34°09' E 135°09'0 0.0
2017-May-20 07:07N 34°09' E 135°09'0 0.0
2017-May-20 06:58N 34°09' E 135°09'0 0.0
2017-May-20 06:28N 34°09' E 135°09'0 0.0
2017-May-20 05:55N 34°09' E 135°09'0 0.0
2017-May-20 05:28N 34°09' E 135°09'0 0.0
2017-May-20 04:55N 34°09' E 135°09'0 0.0
2017-May-20 04:25N 34°09' E 135°09'0 0.0
2017-May-20 03:55N 34°09' E 135°09'0 0.0
2017-May-20 03:28N 34°09' E 135°09'0 0.0
2017-May-20 02:58N 34°09' E 135°09'0 0.0
2017-May-20 02:10N 34°09' E 135°09'0 0.0
2017-May-20 01:49N 34°09' E 135°09'0 0.0
2017-May-20 01:13N 34°09' E 135°09'0 0.0
2017-May-20 00:52N 34°09' E 135°09'0 0.1
2017-May-20 00:28N 34°09' E 135°09'0 0.0
2017-May-19 23:01N 34°09' E 135°09'0 0.0
2017-May-19 22:58N 34°09' E 135°09'0 0.0
2017-May-19 22:25N 34°09' E 135°09'0 0.0
2017-May-19 21:55N 34°09' E 135°09'0 0.0
2017-May-19 21:28N 34°09' E 135°09'0 0.0
2017-May-19 20:58N 34°09' E 135°09'0 0.0
2017-May-19 20:19N 34°09' E 135°09'0 0.0
2017-May-19 19:13N 34°09' E 135°09'0 0.0
2017-May-19 18:43N 34°09' E 135°09'0 0.0
2017-May-19 18:25N 34°09' E 135°09'0 0.1
2017-May-19 17:58N 34°09' E 135°09'0 0.0
2017-May-19 16:58N 34°09' E 135°09'0 0.0
2017-May-19 16:25N 34°09' E 135°09'0 0.0
2017-May-19 15:46N 34°09' E 135°09'0 0.1
2017-May-19 15:25N 34°09' E 135°09'0 0.1
2017-May-19 14:55N 34°09' E 135°09'0 0.1
2017-May-19 13:58N 34°09' E 135°09'0 0.1
2017-May-19 13:25N 34°09' E 135°09'0 0.0
2017-May-19 12:43N 34°09' E 135°09'0 0.0
2017-May-19 12:25N 34°09' E 135°09'0 0.0
2017-May-19 11:55N 34°09' E 135°09'0 0.0
2017-May-19 11:25N 34°09' E 135°09'0 0.0
2017-May-19 10:58N 34°09' E 135°09'0 0.0
2017-May-19 10:28N 34°09' E 135°09'0 0.0
2017-May-19 09:58N 34°09' E 135°09'0 0.0
2017-May-19 09:22N 34°09' E 135°09'0 0.0
2017-May-19 08:55N 34°09' E 135°09'0 0.0
2017-May-19 08:28N 34°09' E 135°09'0 0.0
2017-May-19 07:55N 34°09' E 135°09'0 0.0
2017-May-19 07:25N 34°09' E 135°09'0 0.0
2017-May-19 06:58N 34°09' E 135°09'0 0.0
2017-May-19 06:28N 34°09' E 135°09'0 0.0
2017-May-19 05:55N 34°09' E 135°09'0 0.0
2017-May-19 05:28N 34°09' E 135°09'0 0.0
2017-May-19 04:55N 34°09' E 135°09'0 0.0
2017-May-19 04:22N 34°09' E 135°09'0 0.0
2017-May-19 03:49N 34°09' E 135°09'0 0.1
2017-May-19 03:25N 34°09' E 135°09'5 9.8
2017-May-19 02:57N 34°09' E 135°03'  

Dump ship's entire track history